createdAt,value
2023-11-30T00:12:47.515Z,-9.64
2023-11-30T00:16:32.668Z,-9.57
2023-11-30T00:20:23.934Z,-9.54
2023-11-30T00:24:26.516Z,-9.60
2023-11-30T00:28:28.850Z,-9.59
2023-11-30T00:31:50.882Z,-9.58
2023-11-30T00:35:53.335Z,-9.60
2023-11-30T00:39:55.679Z,-9.56
2023-11-30T00:43:38.873Z,-9.47
2023-11-30T00:47:14.310Z,-9.38
2023-11-30T00:50:56.427Z,-9.24
2023-11-30T00:54:58.899Z,-9.05
2023-11-30T00:59:00.737Z,-8.91
2023-11-30T01:03:03.336Z,-8.84
2023-11-30T01:07:05.817Z,-8.47
2023-11-30T01:10:51.454Z,-8.07
2023-11-30T01:14:46.202Z,-7.81
2023-11-30T01:18:28.863Z,-7.55
2023-11-30T01:22:20.299Z,-7.18
2023-11-30T01:25:52.947Z,-6.78
2023-11-30T01:29:55.410Z,-6.35
2023-11-30T01:33:57.827Z,-5.74
2023-11-30T01:37:38.949Z,-5.24
2023-11-30T01:41:10.171Z,-4.77
2023-11-30T01:44:52.578Z,-4.35
2023-11-30T01:48:45.023Z,-4.24
2023-11-30T01:52:10.794Z,-4.49
2023-11-30T01:55:15.917Z,-4.78
2023-11-30T01:59:01.345Z,-4.98
2023-11-30T02:02:36.468Z,-5.12
2023-11-30T02:06:07.245Z,-5.24
2023-11-30T02:09:49.580Z,-5.38
2023-11-30T02:13:35.746Z,-5.54
2023-11-30T02:17:07.657Z,-5.79
2023-11-30T02:20:50.024Z,-6.00
2023-11-30T02:24:32.027Z,-6.21
2023-11-30T02:28:15.740Z,-6.38
2023-11-30T02:32:01.019Z,-6.56
2023-11-30T02:35:43.558Z,-6.71
2023-11-30T02:39:45.974Z,-6.90
2023-11-30T02:43:38.202Z,-7.06
2023-11-30T02:47:20.581Z,-7.20
2023-11-30T02:50:43.090Z,-7.26
2023-11-30T02:54:28.949Z,-7.28
2023-11-30T02:57:58.918Z,-7.38
2023-11-30T03:01:42.519Z,-7.44
2023-11-30T03:05:05.262Z,-7.48
2023-11-30T03:09:07.861Z,-7.48
2023-11-30T03:12:42.889Z,-7.48
2023-11-30T03:16:45.322Z,-7.40
2023-11-30T03:20:47.962Z,-6.97
2023-11-30T03:24:30.024Z,-6.78
2023-11-30T03:28:32.499Z,-6.64
2023-11-30T03:32:14.844Z,-6.63
2023-11-30T03:36:17.254Z,-6.59
2023-11-30T03:39:59.695Z,-6.54
2023-11-30T03:44:00.823Z,-6.49
2023-11-30T03:47:43.213Z,-6.38
2023-11-30T03:50:53.416Z,-6.20
2023-11-30T03:54:56.707Z,-5.92
2023-11-30T03:58:38.845Z,-5.45
2023-11-30T04:02:33.665Z,-4.80
2023-11-30T04:05:59.169Z,-4.13
2023-11-30T04:10:01.635Z,-3.58
2023-11-30T04:13:23.535Z,-3.15
2023-11-30T04:17:26.104Z,-2.89
2023-11-30T04:20:46.876Z,-2.75
2023-11-30T04:24:32.100Z,-2.74
2023-11-30T04:27:57.115Z,-2.75
2023-11-30T04:31:09.282Z,-2.51
2023-11-30T04:34:31.702Z,-2.30
2023-11-30T04:37:39.457Z,-2.10
2023-11-30T04:41:04.256Z,-1.95
2023-11-30T04:44:46.388Z,-1.84
2023-11-30T04:48:11.519Z,-1.72
2023-11-30T04:51:34.296Z,-1.61
2023-11-30T04:55:07.169Z,-1.53
2023-11-30T04:58:14.978Z,-1.47
2023-11-30T05:01:28.157Z,-1.43
2023-11-30T05:04:32.459Z,-1.47
2023-11-30T05:07:37.281Z,-1.58
2023-11-30T05:10:59.745Z,-1.45
2023-11-30T05:14:04.057Z,-1.36
2023-11-30T05:17:08.519Z,-1.42
2023-11-30T05:20:16.230Z,-1.53
2023-11-30T05:23:18.470Z,-1.53
2023-11-30T05:26:23.544Z,-1.56
2023-11-30T05:29:25.427Z,-1.63
2023-11-30T05:32:48.047Z,-1.67
2023-11-30T05:35:53.057Z,-1.72
2023-11-30T05:38:55.074Z,-1.62
2023-11-30T05:42:00.245Z,-1.46
2023-11-30T05:45:09.362Z,-1.35
2023-11-30T05:48:14.116Z,-1.32
2023-11-30T05:51:19.775Z,-1.38
2023-11-30T05:54:22.170Z,-1.46
2023-11-30T05:57:30.067Z,-1.52
2023-11-30T06:00:34.733Z,-1.52
2023-11-30T06:03:36.914Z,-1.50
2023-11-30T06:06:39.044Z,-1.55
2023-11-30T06:09:41.056Z,-1.65
2023-11-30T06:12:43.121Z,-1.67
2023-11-30T06:15:45.355Z,-1.66
2023-11-30T06:18:50.483Z,-1.74
2023-11-30T06:21:55.356Z,-1.77
2023-11-30T06:24:57.845Z,-1.75
2023-11-30T06:28:17.791Z,-1.54
2023-11-30T06:31:25.122Z,-1.33
2023-11-30T06:34:30.661Z,-1.17
2023-11-30T06:37:52.781Z,-0.97
2023-11-30T06:40:54.678Z,-0.71
2023-11-30T06:43:56.744Z,-0.59
2023-11-30T06:47:18.817Z,-0.74
2023-11-30T06:50:23.409Z,-0.72
2023-11-30T06:53:25.679Z,-0.82
2023-11-30T06:56:30.295Z,-0.95
2023-11-30T06:59:35.309Z,-0.93
2023-11-30T07:02:37.295Z,-0.79
2023-11-30T07:05:44.975Z,-0.66
2023-11-30T07:08:47.283Z,-0.34
2023-11-30T07:11:50.025Z,-0.19
2023-11-30T07:14:52.080Z,-0.41
2023-11-30T07:17:54.585Z,-0.53
2023-11-30T07:20:59.207Z,-0.62
2023-11-30T07:24:01.321Z,-0.69
2023-11-30T07:27:03.494Z,-0.76
2023-11-30T07:30:09.618Z,-0.78
2023-11-30T07:33:12.260Z,-0.82
2023-11-30T07:36:17.287Z,-0.79
2023-11-30T07:39:22.165Z,-0.75
2023-11-30T07:42:34.972Z,-0.69
2023-11-30T07:45:54.041Z,-0.70
2023-11-30T07:49:08.109Z,-0.69
2023-11-30T07:52:09.920Z,-0.68
2023-11-30T07:55:11.533Z,-0.60
2023-11-30T07:58:13.315Z,-0.47
2023-11-30T08:01:20.460Z,-0.40
2023-11-30T08:04:23.420Z,-0.37
2023-11-30T08:07:45.874Z,-0.28
2023-11-30T08:11:10.684Z,-0.21
2023-11-30T08:14:41.739Z,-0.06
2023-11-30T08:18:03.990Z,0.05
2023-11-30T08:21:06.245Z,0.14
2023-11-30T08:24:16.071Z,0.27
2023-11-30T08:27:21.921Z,0.41
2023-11-30T08:30:26.853Z,0.53
2023-11-30T08:33:33.444Z,0.62
2023-11-30T08:36:40.154Z,0.73
2023-11-30T08:39:45.551Z,0.97
2023-11-30T08:42:47.479Z,1.87
2023-11-30T08:45:49.517Z,3.09
2023-11-30T08:48:51.603Z,4.01
2023-11-30T08:51:54.110Z,4.32
2023-11-30T08:54:56.851Z,4.54
2023-11-30T08:57:58.951Z,5.33
2023-11-30T09:01:01.058Z,6.08
2023-11-30T09:04:03.189Z,6.63
2023-11-30T09:07:05.151Z,6.98
2023-11-30T09:10:07.352Z,7.18
2023-11-30T09:13:09.265Z,7.35
2023-11-30T09:16:11.179Z,7.26
2023-11-30T09:19:13.140Z,7.31
2023-11-30T09:22:14.897Z,7.63
2023-11-30T09:25:16.653Z,7.85
2023-11-30T09:28:18.586Z,7.91
2023-11-30T09:31:20.390Z,7.96
2023-11-30T09:34:22.178Z,8.04
2023-11-30T09:37:23.859Z,8.15
2023-11-30T09:40:25.832Z,8.20
2023-11-30T09:43:27.553Z,8.39
2023-11-30T09:46:29.419Z,8.65
2023-11-30T09:49:31.285Z,8.57
2023-11-30T09:52:33.202Z,8.64
2023-11-30T09:55:36.218Z,8.78
2023-11-30T09:58:37.926Z,9.16
2023-11-30T10:01:39.857Z,9.37
2023-11-30T10:04:41.610Z,9.22
2023-11-30T10:07:43.955Z,9.10
2023-11-30T10:10:46.813Z,8.99
2023-11-30T10:13:48.494Z,9.03
2023-11-30T10:16:50.448Z,9.14
2023-11-30T10:19:52.374Z,9.07
2023-11-30T10:22:54.168Z,9.26
2023-11-30T10:25:56.474Z,9.47
2023-11-30T10:28:58.983Z,9.64
2023-11-30T10:32:03.778Z,9.80
2023-11-30T10:35:06.649Z,9.93
2023-11-30T10:38:09.181Z,9.84
2023-11-30T10:41:20.063Z,9.68
2023-11-30T10:44:32.000Z,9.72
2023-11-30T10:47:37.381Z,9.66
2023-11-30T10:50:40.205Z,9.54
2023-11-30T10:53:48.257Z,9.40
2023-11-30T10:57:19.704Z,9.29
2023-11-30T11:00:21.773Z,9.48
2023-11-30T11:03:23.972Z,9.44
2023-11-30T11:06:26.779Z,9.26
2023-11-30T11:09:45.216Z,9.08
2023-11-30T11:12:50.021Z,8.79
2023-11-30T11:15:59.517Z,8.50
2023-11-30T11:19:05.909Z,8.37
2023-11-30T11:22:35.918Z,8.28
2023-11-30T11:25:40.940Z,7.83
2023-11-30T11:28:42.908Z,7.29
2023-11-30T11:31:48.173Z,6.46
2023-11-30T11:34:49.880Z,5.63
2023-11-30T11:38:12.116Z,5.03
2023-11-30T11:41:16.530Z,4.61
2023-11-30T11:44:24.819Z,4.36
2023-11-30T11:47:43.278Z,4.01
2023-11-30T11:50:57.784Z,3.73
2023-11-30T11:53:59.716Z,3.61
2023-11-30T11:57:13.230Z,3.50
2023-11-30T12:00:16.327Z,3.34
2023-11-30T12:03:30.326Z,3.18
2023-11-30T12:06:32.338Z,3.08
2023-11-30T12:09:37.087Z,3.05
2023-11-30T12:13:02.799Z,3.03
2023-11-30T12:16:30.734Z,2.97
2023-11-30T12:19:55.976Z,2.85
2023-11-30T12:23:01.683Z,2.82
2023-11-30T12:26:03.934Z,2.69
2023-11-30T12:29:16.968Z,2.52
2023-11-30T12:32:22.110Z,2.40
2023-11-30T12:35:44.080Z,2.36
2023-11-30T12:39:09.026Z,2.24
2023-11-30T12:42:14.046Z,2.10
2023-11-30T12:45:19.144Z,1.94
2023-11-30T12:48:21.351Z,1.86
2023-11-30T12:51:43.661Z,1.70
2023-11-30T12:55:06.325Z,1.57
2023-11-30T12:58:11.859Z,1.47
2023-11-30T13:01:19.916Z,1.37
2023-11-30T13:04:22.979Z,1.41
2023-11-30T13:07:27.318Z,1.48
2023-11-30T13:10:54.938Z,1.65
2023-11-30T13:13:59.906Z,1.90
2023-11-30T13:18:42.911Z,2.10
2023-11-30T13:21:50.481Z,2.10
2023-11-30T13:24:54.633Z,2.06
2023-11-30T13:27:56.844Z,2.01
2023-11-30T13:31:01.379Z,1.96
2023-11-30T13:34:12.370Z,1.98
2023-11-30T13:37:23.518Z,1.88
2023-11-30T13:40:45.800Z,1.73
2023-11-30T13:43:50.960Z,1.63
2023-11-30T13:47:33.920Z,1.57
2023-11-30T13:50:42.126Z,1.55
2023-11-30T13:54:11.855Z,1.47
2023-11-30T13:57:16.638Z,1.37
2023-11-30T14:00:44.905Z,1.16
2023-11-30T14:03:50.166Z,0.98
2023-11-30T14:07:25.503Z,0.86
2023-11-30T14:10:36.042Z,0.75
2023-11-30T14:13:38.201Z,0.67
2023-11-30T14:17:20.615Z,0.60
2023-11-30T14:20:24.912Z,0.49
2023-11-30T14:23:29.901Z,0.39
2023-11-30T14:26:46.478Z,0.29
2023-11-30T14:30:12.172Z,0.16
2023-11-30T14:33:34.835Z,0.06
2023-11-30T14:36:42.942Z,-0.06
2023-11-30T14:40:05.780Z,-0.23
2023-11-30T14:43:33.895Z,-0.41
2023-11-30T14:46:58.918Z,-0.72
2023-11-30T14:50:24.493Z,-1.00
2023-11-30T14:53:45.244Z,-1.23
2023-11-30T14:57:10.437Z,-1.49
2023-11-30T15:00:56.639Z,-1.74
2023-11-30T15:04:41.292Z,-1.71
2023-11-30T15:07:49.198Z,-1.66
2023-11-30T15:13:48.090Z,-1.59
2023-11-30T15:16:50.170Z,-1.68
2023-11-30T15:19:55.488Z,-1.82
2023-11-30T15:22:57.477Z,-1.96
2023-11-30T15:26:19.931Z,-2.04
2023-11-30T15:29:28.321Z,-2.11
2023-11-30T15:32:58.089Z,-2.19
2023-11-30T15:36:13.857Z,-2.27
2023-11-30T15:39:30.120Z,-2.30
2023-11-30T15:42:52.436Z,-2.35
2023-11-30T15:45:57.436Z,-2.41
2023-11-30T15:49:12.040Z,-2.49
2023-11-30T15:52:39.707Z,-2.58
2023-11-30T15:55:45.166Z,-2.66
2023-11-30T15:59:30.940Z,-2.75
2023-11-30T16:02:48.896Z,-2.78
2023-11-30T16:06:28.714Z,-2.81
2023-11-30T16:09:30.987Z,-2.83
2023-11-30T16:13:00.658Z,-2.84
2023-11-30T16:16:31.702Z,-2.87
2023-11-30T16:20:14.013Z,-2.87
2023-11-30T16:23:39.367Z,-2.87
2023-11-30T16:27:21.848Z,-2.84
2023-11-30T16:30:54.218Z,-2.82
2023-11-30T16:34:01.779Z,-2.80
2023-11-30T16:37:44.091Z,-2.80
2023-11-30T16:41:26.223Z,-2.79
2023-11-30T16:45:26.280Z,-2.81
2023-11-30T16:48:56.060Z,-2.81
2023-11-30T16:52:08.481Z,-2.79
2023-11-30T16:55:36.660Z,-2.78
2023-11-30T16:59:07.099Z,-2.76
2023-11-30T17:02:35.020Z,-2.75
2023-11-30T17:05:45.661Z,-2.76
2023-11-30T17:09:40.775Z,-2.75
2023-11-30T17:13:12.418Z,-2.74
2023-11-30T17:16:54.852Z,-2.72
2023-11-30T17:20:56.023Z,-2.69
2023-11-30T17:24:41.619Z,-2.66
2023-11-30T17:28:27.281Z,-2.65
2023-11-30T17:32:01.265Z,-2.63
2023-11-30T17:35:43.863Z,-2.69
2023-11-30T17:39:29.833Z,-2.92
2023-11-30T17:43:15.082Z,-3.13
2023-11-30T17:46:57.424Z,-3.22
2023-11-30T17:50:31.937Z,-3.32
2023-11-30T17:53:57.033Z,-3.34
2023-11-30T17:57:30.741Z,-3.37
2023-11-30T18:01:33.128Z,-3.38
2023-11-30T18:05:18.903Z,-3.39
2023-11-30T18:09:01.286Z,-3.40
2023-11-30T18:12:23.509Z,-3.35
2023-11-30T18:15:55.587Z,-3.36
2023-11-30T18:19:38.131Z,-3.42
2023-11-30T18:23:40.481Z,-3.40
2023-11-30T18:27:22.842Z,-3.41
2023-11-30T18:31:08.149Z,-3.40
2023-11-30T18:35:18.998Z,-3.40
2023-11-30T18:39:21.607Z,-3.39
2023-11-30T18:42:47.191Z,-3.39
2023-11-30T18:46:33.620Z,-3.37
2023-11-30T18:50:36.054Z,-3.35
2023-11-30T18:54:38.430Z,-3.39
2023-11-30T18:58:10.481Z,-3.39
2023-11-30T19:01:38.622Z,-3.42
2023-11-30T19:05:30.858Z,-3.39
2023-11-30T19:09:14.263Z,-3.40
2023-11-30T19:12:36.605Z,-3.46
2023-11-30T19:16:01.594Z,-3.44
2023-11-30T19:19:35.638Z,-3.45
2023-11-30T19:23:07.897Z,-3.47
2023-11-30T19:26:29.773Z,-3.45
2023-11-30T19:30:32.547Z,-3.40
2023-11-30T19:33:57.745Z,-3.34
2023-11-30T19:37:22.560Z,-3.13
2023-11-30T19:40:52.030Z,-3.07
2023-11-30T19:43:53.934Z,-3.19
2023-11-30T19:47:24.260Z,-3.25
2023-11-30T19:50:52.111Z,-3.28
2023-11-30T19:54:14.796Z,-3.33
2023-11-30T19:57:16.734Z,-3.31
2023-11-30T20:00:47.333Z,-3.29
2023-11-30T20:04:19.757Z,-3.31
2023-11-30T20:07:21.841Z,-3.32
2023-11-30T20:10:50.623Z,-3.33
2023-11-30T20:14:11.569Z,-3.34
2023-11-30T20:17:23.516Z,-3.35
2023-11-30T20:21:08.259Z,-3.37
2023-11-30T20:24:50.640Z,-3.40
2023-11-30T20:28:13.527Z,-3.38
2023-11-30T20:31:47.585Z,-3.40
2023-11-30T20:35:50.110Z,-3.43
2023-11-30T20:39:32.738Z,-3.37
2023-11-30T20:42:57.230Z,-3.26
2023-11-30T20:46:45.197Z,-3.27
2023-11-30T20:50:30.969Z,-3.26
2023-11-30T20:53:53.412Z,-3.27
2023-11-30T20:57:38.200Z,-3.27
2023-11-30T21:00:52.457Z,-3.29
2023-11-30T21:04:20.937Z,-3.25
2023-11-30T21:08:06.413Z,-3.17
2023-11-30T21:11:48.784Z,-3.15
2023-11-30T21:15:51.463Z,-3.13
2023-11-30T21:19:35.879Z,-3.14
2023-11-30T21:23:28.256Z,-3.14
2023-11-30T21:27:12.509Z,-3.12
2023-11-30T21:30:54.957Z,-3.06
2023-11-30T21:34:40.148Z,-3.00
2023-11-30T21:38:09.560Z,-2.91
2023-11-30T21:42:01.599Z,-2.83
2023-11-30T21:45:27.268Z,-2.79
2023-11-30T21:48:58.976Z,-2.78
2023-11-30T21:52:44.534Z,-2.78
2023-11-30T21:56:46.909Z,-2.75
2023-11-30T21:59:48.691Z,-2.70
2023-11-30T22:03:31.390Z,-2.68
2023-11-30T22:07:33.780Z,-2.64
2023-11-30T22:11:09.230Z,-2.57
2023-11-30T22:14:54.279Z,-2.52
2023-11-30T22:18:45.930Z,-2.49
2023-11-30T22:22:28.405Z,-2.48
2023-11-30T22:25:58.799Z,-2.43
2023-11-30T22:29:46.370Z,-2.42
2023-11-30T22:33:31.877Z,-2.40
2023-11-30T22:36:56.315Z,-2.38
2023-11-30T22:40:10.757Z,-2.37
2023-11-30T22:43:32.806Z,-2.36
2023-11-30T22:46:55.957Z,-2.36
2023-11-30T22:50:41.132Z,-2.35
2023-11-30T22:54:08.844Z,-2.33
2023-11-30T22:57:47.878Z,-2.34
2023-11-30T23:01:10.271Z,-2.33
2023-11-30T23:04:16.385Z,-2.31
2023-11-30T23:08:03.716Z,-2.28
2023-11-30T23:11:40.096Z,-2.27
2023-11-30T23:15:05.148Z,-2.26
2023-11-30T23:18:42.573Z,-2.25
2023-11-30T23:22:35.649Z,-2.25
2023-11-30T23:25:57.571Z,-2.23
2023-11-30T23:29:42.663Z,-2.23
2023-11-30T23:33:45.168Z,-2.23
2023-11-30T23:36:57.896Z,-2.21
2023-11-30T23:40:26.136Z,-2.21
2023-11-30T23:44:01.011Z,-2.24
2023-11-30T23:47:43.223Z,-2.29
2023-11-30T23:51:13.469Z,-2.33
2023-11-30T23:54:35.676Z,-2.37
2023-11-30T23:58:07.431Z,-2.37
